sensor_id;sensor_type;location;lat;lon;timestamp;P1;durP1;ratioP1;P2;durP2;ratioP2
12818;SDS011;6474;53.474;9.894;2022-07-05T00:01:46;0.60;;;0.60;;
12818;SDS011;6474;53.474;9.894;2022-07-05T00:04:14;5.00;;;0.60;;
12818;SDS011;6474;53.474;9.894;2022-07-05T00:06:42;0.60;;;0.60;;
12818;SDS011;6474;53.474;9.894;2022-07-05T00:09:25;1.13;;;0.80;;
12818;SDS011;6474;53.474;9.894;2022-07-05T00:11:52;0.80;;;0.80;;
12818;SDS011;6474;53.474;9.894;2022-07-05T00:14:21;0.70;;;0.70;;
12818;SDS011;6474;53.474;9.894;2022-07-05T00:16:49;1.27;;;0.77;;
12818;SDS011;6474;53.474;9.894;2022-07-05T00:19:17;0.70;;;0.70;;
12818;SDS011;6474;53.474;9.894;2022-07-05T00:21:45;1.17;;;0.73;;
12818;SDS011;6474;53.474;9.894;2022-07-05T00:24:13;0.60;;;0.60;;
12818;SDS011;6474;53.474;9.894;2022-07-05T00:26:42;0.63;;;0.63;;
12818;SDS011;6474;53.474;9.894;2022-07-05T00:29:10;0.67;;;0.67;;
12818;SDS011;6474;53.474;9.894;2022-07-05T00:31:37;2.73;;;1.00;;
12818;SDS011;6474;53.474;9.894;2022-07-05T00:34:05;1.90;;;0.90;;
12818;SDS011;6474;53.474;9.894;2022-07-05T00:36:33;1.00;;;1.00;;
12818;SDS011;6474;53.474;9.894;2022-07-05T00:39:01;0.80;;;0.80;;
12818;SDS011;6474;53.474;9.894;2022-07-05T00:41:30;0.70;;;0.70;;
12818;SDS011;6474;53.474;9.894;2022-07-05T00:44:00;0.50;;;0.50;;
12818;SDS011;6474;53.474;9.894;2022-07-05T00:46:29;0.60;;;0.60;;
12818;SDS011;6474;53.474;9.894;2022-07-05T00:48:58;0.90;;;0.90;;
12818;SDS011;6474;53.474;9.894;2022-07-05T00:51:26;0.80;;;0.80;;
12818;SDS011;6474;53.474;9.894;2022-07-05T00:53:57;0.90;;;0.90;;
12818;SDS011;6474;53.474;9.894;2022-07-05T00:56:27;0.70;;;0.70;;
12818;SDS011;6474;53.474;9.894;2022-07-05T00:58:55;0.70;;;0.70;;
12818;SDS011;6474;53.474;9.894;2022-07-05T01:01:25;0.90;;;0.90;;
12818;SDS011;6474;53.474;9.894;2022-07-05T01:03:54;0.80;;;0.80;;
12818;SDS011;6474;53.474;9.894;2022-07-05T01:06:23;0.83;;;0.83;;
12818;SDS011;6474;53.474;9.894;2022-07-05T01:08:51;0.77;;;0.77;;
12818;SDS011;6474;53.474;9.894;2022-07-05T01:11:19;0.90;;;0.90;;
12818;SDS011;6474;53.474;9.894;2022-07-05T01:13:47;0.73;;;0.73;;
12818;SDS011;6474;53.474;9.894;2022-07-05T01:16:15;0.87;;;0.87;;
12818;SDS011;6474;53.474;9.894;2022-07-05T01:18:45;1.97;;;1.60;;
12818;SDS011;6474;53.474;9.894;2022-07-05T01:21:13;0.90;;;0.90;;
12818;SDS011;6474;53.474;9.894;2022-07-05T01:23:47;0.80;;;0.80;;
12818;SDS011;6474;53.474;9.894;2022-07-05T01:26:17;0.97;;;0.97;;
12818;SDS011;6474;53.474;9.894;2022-07-05T01:28:45;1.37;;;1.27;;
12818;SDS011;6474;53.474;9.894;2022-07-05T01:31:13;1.27;;;1.03;;
12818;SDS011;6474;53.474;9.894;2022-07-05T01:33:41;1.23;;;1.23;;
12818;SDS011;6474;53.474;9.894;2022-07-05T01:36:10;0.90;;;0.90;;
12818;SDS011;6474;53.474;9.894;2022-07-05T01:38:38;0.80;;;0.80;;
12818;SDS011;6474;53.474;9.894;2022-07-05T01:41:09;2.20;;;0.60;;
12818;SDS011;6474;53.474;9.894;2022-07-05T01:43:36;0.90;;;0.90;;
12818;SDS011;6474;53.474;9.894;2022-07-05T01:46:05;0.83;;;0.83;;
12818;SDS011;6474;53.474;9.894;2022-07-05T01:48:35;0.80;;;0.80;;
12818;SDS011;6474;53.474;9.894;2022-07-05T01:51:05;0.70;;;0.70;;
12818;SDS011;6474;53.474;9.894;2022-07-05T01:53:34;2.23;;;1.00;;
12818;SDS011;6474;53.474;9.894;2022-07-05T01:56:06;4.00;;;1.23;;
12818;SDS011;6474;53.474;9.894;2022-07-05T01:58:35;0.70;;;0.70;;
12818;SDS011;6474;53.474;9.894;2022-07-05T02:01:04;0.80;;;0.80;;
12818;SDS011;6474;53.474;9.894;2022-07-05T02:03:32;1.00;;;1.00;;
12818;SDS011;6474;53.474;9.894;2022-07-05T02:06:20;0.80;;;0.80;;
12818;SDS011;6474;53.474;9.894;2022-07-05T02:08:48;1.67;;;1.10;;
12818;SDS011;6474;53.474;9.894;2022-07-05T02:11:15;0.90;;;0.90;;
12818;SDS011;6474;53.474;9.894;2022-07-05T02:13:45;1.00;;;1.00;;
12818;SDS011;6474;53.474;9.894;2022-07-05T02:16:12;0.97;;;0.97;;
12818;SDS011;6474;53.474;9.894;2022-07-05T02:18:40;0.90;;;0.90;;
12818;SDS011;6474;53.474;9.894;2022-07-05T02:21:08;0.97;;;0.97;;
12818;SDS011;6474;53.474;9.894;2022-07-05T02:23:36;2.57;;;1.20;;
12818;SDS011;6474;53.474;9.894;2022-07-05T02:26:04;0.83;;;0.83;;
12818;SDS011;6474;53.474;9.894;2022-07-05T02:28:32;1.07;;;1.07;;
12818;SDS011;6474;53.474;9.894;2022-07-05T02:31:01;0.73;;;0.73;;
12818;SDS011;6474;53.474;9.894;2022-07-05T02:33:29;1.00;;;1.00;;
12818;SDS011;6474;53.474;9.894;2022-07-05T02:35:57;1.07;;;1.07;;
12818;SDS011;6474;53.474;9.894;2022-07-05T02:38:31;0.90;;;0.90;;
12818;SDS011;6474;53.474;9.894;2022-07-05T02:40:59;1.00;;;1.00;;
12818;SDS011;6474;53.474;9.894;2022-07-05T02:43:27;2.20;;;0.77;;
12818;SDS011;6474;53.474;9.894;2022-07-05T02:45:55;2.23;;;0.90;;
12818;SDS011;6474;53.474;9.894;2022-07-05T02:48:24;0.90;;;0.90;;
12818;SDS011;6474;53.474;9.894;2022-07-05T02:50:52;1.70;;;1.10;;
12818;SDS011;6474;53.474;9.894;2022-07-05T02:53:20;0.80;;;0.80;;
12818;SDS011;6474;53.474;9.894;2022-07-05T02:55:48;1.00;;;1.00;;
12818;SDS011;6474;53.474;9.894;2022-07-05T02:58:16;1.10;;;1.10;;
12818;SDS011;6474;53.474;9.894;2022-07-05T03:00:44;1.17;;;1.17;;
12818;SDS011;6474;53.474;9.894;2022-07-05T03:03:13;1.47;;;1.37;;
12818;SDS011;6474;53.474;9.894;2022-07-05T03:05:43;0.90;;;0.90;;
12818;SDS011;6474;53.474;9.894;2022-07-05T03:08:11;1.00;;;1.00;;
12818;SDS011;6474;53.474;9.894;2022-07-05T03:10:39;1.03;;;1.03;;
12818;SDS011;6474;53.474;9.894;2022-07-05T03:13:07;1.20;;;1.20;;
12818;SDS011;6474;53.474;9.894;2022-07-05T03:15:35;1.07;;;1.07;;
12818;SDS011;6474;53.474;9.894;2022-07-05T03:18:03;1.10;;;1.07;;
12818;SDS011;6474;53.474;9.894;2022-07-05T03:20:31;1.10;;;1.10;;
12818;SDS011;6474;53.474;9.894;2022-07-05T03:23:01;1.43;;;1.33;;
12818;SDS011;6474;53.474;9.894;2022-07-05T03:25:29;1.10;;;1.10;;
12818;SDS011;6474;53.474;9.894;2022-07-05T03:27:56;1.03;;;1.03;;
12818;SDS011;6474;53.474;9.894;2022-07-05T03:30:24;1.00;;;1.00;;
12818;SDS011;6474;53.474;9.894;2022-07-05T03:32:52;1.13;;;1.13;;
12818;SDS011;6474;53.474;9.894;2022-07-05T03:35:20;1.10;;;1.10;;
12818;SDS011;6474;53.474;9.894;2022-07-05T03:37:48;1.30;;;1.20;;
12818;SDS011;6474;53.474;9.894;2022-07-05T03:40:17;1.00;;;1.00;;
12818;SDS011;6474;53.474;9.894;2022-07-05T03:42:45;1.20;;;1.20;;
12818;SDS011;6474;53.474;9.894;2022-07-05T03:45:13;0.90;;;0.90;;
12818;SDS011;6474;53.474;9.894;2022-07-05T03:47:41;1.70;;;1.47;;
12818;SDS011;6474;53.474;9.894;2022-07-05T03:50:09;1.10;;;1.10;;
12818;SDS011;6474;53.474;9.894;2022-07-05T03:52:37;1.50;;;1.40;;
12818;SDS011;6474;53.474;9.894;2022-07-05T03:55:05;1.00;;;1.00;;
12818;SDS011;6474;53.474;9.894;2022-07-05T03:57:35;1.30;;;1.20;;
12818;SDS011;6474;53.474;9.894;2022-07-05T04:00:03;3.80;;;1.13;;
12818;SDS011;6474;53.474;9.894;2022-07-05T04:02:32;0.87;;;0.87;;
12818;SDS011;6474;53.474;9.894;2022-07-05T04:05:00;1.33;;;1.23;;
12818;SDS011;6474;53.474;9.894;2022-07-05T04:07:29;1.10;;;1.10;;
12818;SDS011;6474;53.474;9.894;2022-07-05T04:09:57;1.20;;;1.20;;
12818;SDS011;6474;53.474;9.894;2022-07-05T04:12:25;1.00;;;1.00;;
12818;SDS011;6474;53.474;9.894;2022-07-05T04:14:55;1.33;;;1.23;;
12818;SDS011;6474;53.474;9.894;2022-07-05T04:17:23;1.10;;;1.10;;
12818;SDS011;6474;53.474;9.894;2022-07-05T04:19:51;1.27;;;1.27;;
12818;SDS011;6474;53.474;9.894;2022-07-05T04:22:19;2.00;;;0.90;;
12818;SDS011;6474;53.474;9.894;2022-07-05T04:24:47;1.20;;;1.20;;
12818;SDS011;6474;53.474;9.894;2022-07-05T04:27:32;1.00;;;1.00;;
12818;SDS011;6474;53.474;9.894;2022-07-05T04:30:02;1.20;;;1.20;;
12818;SDS011;6474;53.474;9.894;2022-07-05T04:32:30;2.87;;;1.20;;
12818;SDS011;6474;53.474;9.894;2022-07-05T04:34:58;1.00;;;1.00;;
12818;SDS011;6474;53.474;9.894;2022-07-05T04:37:26;1.00;;;1.00;;
12818;SDS011;6474;53.474;9.894;2022-07-05T04:39:54;1.60;;;1.13;;
12818;SDS011;6474;53.474;9.894;2022-07-05T04:42:21;1.30;;;1.20;;
12818;SDS011;6474;53.474;9.894;2022-07-05T04:44:49;0.80;;;0.80;;
12818;SDS011;6474;53.474;9.894;2022-07-05T04:47:18;0.90;;;0.90;;
12818;SDS011;6474;53.474;9.894;2022-07-05T04:49:49;0.70;;;0.70;;
12818;SDS011;6474;53.474;9.894;2022-07-05T04:52:17;0.90;;;0.90;;
12818;SDS011;6474;53.474;9.894;2022-07-05T04:54:45;1.70;;;1.03;;
12818;SDS011;6474;53.474;9.894;2022-07-05T04:57:13;2.33;;;0.87;;
12818;SDS011;6474;53.474;9.894;2022-07-05T04:59:41;1.00;;;0.80;;
12818;SDS011;6474;53.474;9.894;2022-07-05T05:02:09;1.13;;;1.13;;
12818;SDS011;6474;53.474;9.894;2022-07-05T05:04:39;2.17;;;1.20;;
12818;SDS011;6474;53.474;9.894;2022-07-05T05:07:06;2.00;;;1.10;;
12818;SDS011;6474;53.474;9.894;2022-07-05T05:09:35;0.70;;;0.70;;
12818;SDS011;6474;53.474;9.894;2022-07-05T05:12:03;0.90;;;0.90;;
12818;SDS011;6474;53.474;9.894;2022-07-05T05:14:31;0.70;;;0.70;;
12818;SDS011;6474;53.474;9.894;2022-07-05T05:17:00;1.03;;;1.00;;
12818;SDS011;6474;53.474;9.894;2022-07-05T05:19:27;0.90;;;0.90;;
12818;SDS011;6474;53.474;9.894;2022-07-05T05:21:57;0.90;;;0.90;;
12818;SDS011;6474;53.474;9.894;2022-07-05T05:24:24;0.90;;;0.90;;
12818;SDS011;6474;53.474;9.894;2022-07-05T05:26:52;0.87;;;0.87;;
12818;SDS011;6474;53.474;9.894;2022-07-05T05:29:20;0.77;;;0.77;;
12818;SDS011;6474;53.474;9.894;2022-07-05T05:31:48;0.87;;;0.87;;
12818;SDS011;6474;53.474;9.894;2022-07-05T05:34:16;0.70;;;0.70;;
12818;SDS011;6474;53.474;9.894;2022-07-05T05:36:44;0.60;;;0.60;;
12818;SDS011;6474;53.474;9.894;2022-07-05T05:39:14;2.77;;;1.20;;
12818;SDS011;6474;53.474;9.894;2022-07-05T05:41:42;1.13;;;1.00;;
12818;SDS011;6474;53.474;9.894;2022-07-05T05:44:10;0.87;;;0.87;;
12818;SDS011;6474;53.474;9.894;2022-07-05T05:46:37;0.73;;;0.73;;
12818;SDS011;6474;53.474;9.894;2022-07-05T05:49:05;0.70;;;0.70;;
12818;SDS011;6474;53.474;9.894;2022-07-05T05:51:33;1.40;;;1.00;;
12818;SDS011;6474;53.474;9.894;2022-07-05T05:54:01;0.93;;;0.93;;
12818;SDS011;6474;53.474;9.894;2022-07-05T05:56:30;0.80;;;0.80;;
12818;SDS011;6474;53.474;9.894;2022-07-05T05:58:58;0.70;;;0.70;;
12818;SDS011;6474;53.474;9.894;2022-07-05T06:01:26;0.65;;;0.65;;
12818;SDS011;6474;53.474;9.894;2022-07-05T06:03:54;0.97;;;0.97;;
12818;SDS011;6474;53.474;9.894;2022-07-05T06:06:22;0.70;;;0.70;;
12818;SDS011;6474;53.474;9.894;2022-07-05T06:08:50;0.97;;;0.97;;
12818;SDS011;6474;53.474;9.894;2022-07-05T06:11:18;0.70;;;0.70;;
12818;SDS011;6474;53.474;9.894;2022-07-05T06:13:47;0.90;;;0.90;;
12818;SDS011;6474;53.474;9.894;2022-07-05T06:16:15;0.80;;;0.80;;
12818;SDS011;6474;53.474;9.894;2022-07-05T06:18:43;0.75;;;0.75;;
12818;SDS011;6474;53.474;9.894;2022-07-05T06:21:11;0.75;;;0.75;;
12818;SDS011;6474;53.474;9.894;2022-07-05T06:23:39;2.75;;;0.90;;
12818;SDS011;6474;53.474;9.894;2022-07-05T06:26:07;1.20;;;0.93;;
12818;SDS011;6474;53.474;9.894;2022-07-05T06:28:35;0.68;;;0.68;;
12818;SDS011;6474;53.474;9.894;2022-07-05T06:31:04;0.77;;;0.77;;
12818;SDS011;6474;53.474;9.894;2022-07-05T06:33:32;0.90;;;0.60;;
12818;SDS011;6474;53.474;9.894;2022-07-05T06:36:00;0.68;;;0.68;;
12818;SDS011;6474;53.474;9.894;2022-07-05T06:38:28;0.65;;;0.60;;
12818;SDS011;6474;53.474;9.894;2022-07-05T06:40:56;0.65;;;0.65;;
12818;SDS011;6474;53.474;9.894;2022-07-05T06:43:25;0.50;;;0.50;;
12818;SDS011;6474;53.474;9.894;2022-07-05T06:45:54;0.55;;;0.55;;
12818;SDS011;6474;53.474;9.894;2022-07-05T06:48:23;0.60;;;0.60;;
12818;SDS011;6474;53.474;9.894;2022-07-05T06:50:51;0.60;;;0.60;;
12818;SDS011;6474;53.474;9.894;2022-07-05T06:53:19;0.60;;;0.60;;
12818;SDS011;6474;53.474;9.894;2022-07-05T06:55:46;0.60;;;0.60;;
12818;SDS011;6474;53.474;9.894;2022-07-05T06:58:21;0.75;;;0.75;;
12818;SDS011;6474;53.474;9.894;2022-07-05T07:00:49;0.38;;;0.38;;
12818;SDS011;6474;53.474;9.894;2022-07-05T07:03:39;0.50;;;0.50;;
12818;SDS011;6474;53.474;9.894;2022-07-05T07:06:26;0.75;;;0.65;;
12818;SDS011;6474;53.474;9.894;2022-07-05T07:08:54;0.40;;;0.40;;
12818;SDS011;6474;53.474;9.894;2022-07-05T07:11:40;0.55;;;0.55;;
12818;SDS011;6474;53.474;9.894;2022-07-05T07:14:07;0.70;;;0.70;;
12818;SDS011;6474;53.474;9.894;2022-07-05T07:16:35;0.80;;;0.80;;
12818;SDS011;6474;53.474;9.894;2022-07-05T07:19:04;0.50;;;0.50;;
12818;SDS011;6474;53.474;9.894;2022-07-05T07:21:39;0.90;;;0.70;;
12818;SDS011;6474;53.474;9.894;2022-07-05T07:24:08;0.65;;;0.65;;
12818;SDS011;6474;53.474;9.894;2022-07-05T07:26:36;0.47;;;0.47;;
12818;SDS011;6474;53.474;9.894;2022-07-05T07:29:21;0.60;;;0.60;;
12818;SDS011;6474;53.474;9.894;2022-07-05T07:31:49;0.65;;;0.60;;
12818;SDS011;6474;53.474;9.894;2022-07-05T07:34:19;0.50;;;0.50;;
12818;SDS011;6474;53.474;9.894;2022-07-05T07:36:46;0.40;;;0.40;;
12818;SDS011;6474;53.474;9.894;2022-07-05T07:39:15;0.40;;;0.40;;
12818;SDS011;6474;53.474;9.894;2022-07-05T07:41:42;0.50;;;0.50;;
12818;SDS011;6474;53.474;9.894;2022-07-05T07:44:10;0.57;;;0.57;;
12818;SDS011;6474;53.474;9.894;2022-07-05T07:46:38;0.63;;;0.63;;
12818;SDS011;6474;53.474;9.894;2022-07-05T07:49:06;0.52;;;0.52;;
12818;SDS011;6474;53.474;9.894;2022-07-05T07:51:36;0.65;;;0.65;;
12818;SDS011;6474;53.474;9.894;2022-07-05T07:54:04;0.38;;;0.38;;
12818;SDS011;6474;53.474;9.894;2022-07-05T07:56:32;0.10;;;0.10;;
12818;SDS011;6474;53.474;9.894;2022-07-05T07:59:00;0.50;;;0.50;;
12818;SDS011;6474;53.474;9.894;2022-07-05T08:01:28;0.32;;;0.32;;
12818;SDS011;6474;53.474;9.894;2022-07-05T08:03:57;0.32;;;0.32;;
12818;SDS011;6474;53.474;9.894;2022-07-05T08:06:25;0.40;;;0.40;;
12818;SDS011;6474;53.474;9.894;2022-07-05T08:08:54;0.40;;;0.40;;
12818;SDS011;6474;53.474;9.894;2022-07-05T08:11:22;0.22;;;0.22;;
12818;SDS011;6474;53.474;9.894;2022-07-05T08:13:50;0.32;;;0.32;;
12818;SDS011;6474;53.474;9.894;2022-07-05T08:16:18;0.28;;;0.28;;
12818;SDS011;6474;53.474;9.894;2022-07-05T08:18:46;0.30;;;0.30;;
12818;SDS011;6474;53.474;9.894;2022-07-05T08:21:31;0.30;;;0.30;;
12818;SDS011;6474;53.474;9.894;2022-07-05T08:24:03;0.30;;;0.30;;
12818;SDS011;6474;53.474;9.894;2022-07-05T08:26:32;0.30;;;0.30;;
12818;SDS011;6474;53.474;9.894;2022-07-05T08:29:02;0.20;;;0.20;;
12818;SDS011;6474;53.474;9.894;2022-07-05T08:31:36;0.43;;;0.43;;
12818;SDS011;6474;53.474;9.894;2022-07-05T08:34:05;0.30;;;0.30;;
12818;SDS011;6474;53.474;9.894;2022-07-05T08:36:33;0.50;;;0.50;;
12818;SDS011;6474;53.474;9.894;2022-07-05T08:39:03;0.30;;;0.30;;
12818;SDS011;6474;53.474;9.894;2022-07-05T08:41:31;0.30;;;0.30;;
12818;SDS011;6474;53.474;9.894;2022-07-05T08:44:02;0.30;;;0.30;;
12818;SDS011;6474;53.474;9.894;2022-07-05T08:46:32;0.40;;;0.40;;
12818;SDS011;6474;53.474;9.894;2022-07-05T08:49:02;0.10;;;0.10;;
12818;SDS011;6474;53.474;9.894;2022-07-05T08:51:37;0.32;;;0.32;;
12818;SDS011;6474;53.474;9.894;2022-07-05T08:54:08;0.30;;;0.30;;
12818;SDS011;6474;53.474;9.894;2022-07-05T08:56:40;0.30;;;0.30;;
12818;SDS011;6474;53.474;9.894;2022-07-05T08:59:29;0.20;;;0.20;;
12818;SDS011;6474;53.474;9.894;2022-07-05T09:01:57;0.30;;;0.30;;
12818;SDS011;6474;53.474;9.894;2022-07-05T09:04:25;0.30;;;0.30;;
12818;SDS011;6474;53.474;9.894;2022-07-05T09:06:57;0.30;;;0.30;;
12818;SDS011;6474;53.474;9.894;2022-07-05T09:09:30;0.30;;;0.30;;
12818;SDS011;6474;53.474;9.894;2022-07-05T09:12:00;0.40;;;0.40;;
12818;SDS011;6474;53.474;9.894;2022-07-05T09:14:47;0.25;;;0.25;;
12818;SDS011;6474;53.474;9.894;2022-07-05T09:17:15;0.20;;;0.20;;
12818;SDS011;6474;53.474;9.894;2022-07-05T09:19:43;0.20;;;0.20;;
12818;SDS011;6474;53.474;9.894;2022-07-05T09:22:17;0.22;;;0.22;;
12818;SDS011;6474;53.474;9.894;2022-07-05T09:24:46;0.43;;;0.43;;
12818;SDS011;6474;53.474;9.894;2022-07-05T09:27:15;0.30;;;0.30;;
12818;SDS011;6474;53.474;9.894;2022-07-05T09:29:52;0.15;;;0.15;;
12818;SDS011;6474;53.474;9.894;2022-07-05T09:32:28;0.30;;;0.30;;
12818;SDS011;6474;53.474;9.894;2022-07-05T09:34:56;0.60;;;0.60;;
12818;SDS011;6474;53.474;9.894;2022-07-05T09:37:28;0.20;;;0.20;;
12818;SDS011;6474;53.474;9.894;2022-07-05T09:40:12;0.30;;;0.30;;
12818;SDS011;6474;53.474;9.894;2022-07-05T09:42:45;0.20;;;0.20;;
12818;SDS011;6474;53.474;9.894;2022-07-05T09:45:23;0.30;;;0.30;;
12818;SDS011;6474;53.474;9.894;2022-07-05T09:47:53;0.20;;;0.20;;
12818;SDS011;6474;53.474;9.894;2022-07-05T09:50:41;0.20;;;0.20;;
12818;SDS011;6474;53.474;9.894;2022-07-05T09:53:27;0.20;;;0.20;;
12818;SDS011;6474;53.474;9.894;2022-07-05T09:56:13;0.20;;;0.20;;
12818;SDS011;6474;53.474;9.894;2022-07-05T09:58:41;0.20;;;0.20;;
12818;SDS011;6474;53.474;9.894;2022-07-05T10:01:25;0.32;;;0.32;;
12818;SDS011;6474;53.474;9.894;2022-07-05T10:03:54;0.30;;;0.30;;
12818;SDS011;6474;53.474;9.894;2022-07-05T10:06:24;0.30;;;0.30;;
12818;SDS011;6474;53.474;9.894;2022-07-05T10:08:54;0.30;;;0.30;;
12818;SDS011;6474;53.474;9.894;2022-07-05T10:11:24;0.20;;;0.20;;
12818;SDS011;6474;53.474;9.894;2022-07-05T10:13:55;0.40;;;0.40;;
12818;SDS011;6474;53.474;9.894;2022-07-05T10:16:25;0.40;;;0.40;;
12818;SDS011;6474;53.474;9.894;2022-07-05T10:18:54;0.38;;;0.38;;
12818;SDS011;6474;53.474;9.894;2022-07-05T10:21:24;0.32;;;0.32;;
12818;SDS011;6474;53.474;9.894;2022-07-05T10:23:52;0.10;;;0.10;;
12818;SDS011;6474;53.474;9.894;2022-07-05T10:26:23;0.30;;;0.30;;
12818;SDS011;6474;53.474;9.894;2022-07-05T10:28:53;0.30;;;0.30;;
12818;SDS011;6474;53.474;9.894;2022-07-05T10:31:28;0.32;;;0.32;;
12818;SDS011;6474;53.474;9.894;2022-07-05T10:33:59;0.30;;;0.30;;
12818;SDS011;6474;53.474;9.894;2022-07-05T10:36:53;0.20;;;0.20;;
12818;SDS011;6474;53.474;9.894;2022-07-05T10:39:21;0.30;;;0.30;;
12818;SDS011;6474;53.474;9.894;2022-07-05T10:41:53;0.08;;;0.08;;
12818;SDS011;6474;53.474;9.894;2022-07-05T10:44:26;0.30;;;0.30;;
12818;SDS011;6474;53.474;9.894;2022-07-05T10:47:08;0.25;;;0.25;;
12818;SDS011;6474;53.474;9.894;2022-07-05T10:49:39;0.43;;;0.43;;
12818;SDS011;6474;53.474;9.894;2022-07-05T10:52:21;0.25;;;0.25;;
12818;SDS011;6474;53.474;9.894;2022-07-05T11:04:06;0.30;;;0.30;;
12818;SDS011;6474;53.474;9.894;2022-07-05T11:07:00;0.30;;;0.30;;
12818;SDS011;6474;53.474;9.894;2022-07-05T11:09:29;0.20;;;0.20;;
12818;SDS011;6474;53.474;9.894;2022-07-05T11:12:03;3.60;;;0.90;;
12818;SDS011;6474;53.474;9.894;2022-07-05T11:14:56;0.30;;;0.30;;
12818;SDS011;6474;53.474;9.894;2022-07-05T11:17:32;0.30;;;0.30;;
12818;SDS011;6474;53.474;9.894;2022-07-05T11:20:27;0.40;;;0.40;;
12818;SDS011;6474;53.474;9.894;2022-07-05T11:23:00;0.30;;;0.30;;
12818;SDS011;6474;53.474;9.894;2022-07-05T11:25:31;1.35;;;0.40;;
12818;SDS011;6474;53.474;9.894;2022-07-05T11:28:00;0.30;;;0.30;;
12818;SDS011;6474;53.474;9.894;2022-07-05T11:30:45;0.52;;;0.20;;
12818;SDS011;6474;53.474;9.894;2022-07-05T11:36:23;0.30;;;0.30;;
12818;SDS011;6474;53.474;9.894;2022-07-05T11:39:06;0.28;;;0.28;;
12818;SDS011;6474;53.474;9.894;2022-07-05T11:41:40;0.82;;;0.32;;
12818;SDS011;6474;53.474;9.894;2022-07-05T11:44:10;0.30;;;0.30;;
12818;SDS011;6474;53.474;9.894;2022-07-05T11:46:40;0.20;;;0.20;;
12818;SDS011;6474;53.474;9.894;2022-07-05T11:49:20;0.17;;;0.17;;
12818;SDS011;6474;53.474;9.894;2022-07-05T11:51:55;0.20;;;0.20;;
12818;SDS011;6474;53.474;9.894;2022-07-05T11:54:25;0.30;;;0.30;;
12818;SDS011;6474;53.474;9.894;2022-07-05T11:56:53;0.20;;;0.20;;
12818;SDS011;6474;53.474;9.894;2022-07-05T11:59:23;0.38;;;0.38;;
12818;SDS011;6474;53.474;9.894;2022-07-05T12:01:52;0.43;;;0.43;;
12818;SDS011;6474;53.474;9.894;2022-07-05T12:04:21;0.30;;;0.30;;
12818;SDS011;6474;53.474;9.894;2022-07-05T12:06:50;0.20;;;0.20;;
12818;SDS011;6474;53.474;9.894;2022-07-05T12:09:23;0.68;;;0.68;;
12818;SDS011;6474;53.474;9.894;2022-07-05T12:11:52;0.35;;;0.35;;
12818;SDS011;6474;53.474;9.894;2022-07-05T12:14:46;0.28;;;0.28;;
12818;SDS011;6474;53.474;9.894;2022-07-05T12:17:15;0.30;;;0.30;;
12818;SDS011;6474;53.474;9.894;2022-07-05T12:19:50;0.25;;;0.25;;
12818;SDS011;6474;53.474;9.894;2022-07-05T12:22:27;0.30;;;0.30;;
12818;SDS011;6474;53.474;9.894;2022-07-05T12:24:58;0.30;;;0.30;;
12818;SDS011;6474;53.474;9.894;2022-07-05T12:27:27;0.20;;;0.20;;
12818;SDS011;6474;53.474;9.894;2022-07-05T12:29:56;0.30;;;0.30;;
12818;SDS011;6474;53.474;9.894;2022-07-05T12:32:25;0.20;;;0.20;;
12818;SDS011;6474;53.474;9.894;2022-07-05T12:34:53;0.30;;;0.30;;
12818;SDS011;6474;53.474;9.894;2022-07-05T12:37:27;0.20;;;0.20;;
12818;SDS011;6474;53.474;9.894;2022-07-05T12:40:05;0.20;;;0.20;;
12818;SDS011;6474;53.474;9.894;2022-07-05T12:42:36;0.22;;;0.22;;
12818;SDS011;6474;53.474;9.894;2022-07-05T12:45:06;0.20;;;0.20;;
12818;SDS011;6474;53.474;9.894;2022-07-05T12:47:36;0.38;;;0.38;;
12818;SDS011;6474;53.474;9.894;2022-07-05T12:50:04;0.38;;;0.38;;
12818;SDS011;6474;53.474;9.894;2022-07-05T12:52:33;0.30;;;0.30;;
12818;SDS011;6474;53.474;9.894;2022-07-05T12:55:23;0.30;;;0.30;;
12818;SDS011;6474;53.474;9.894;2022-07-05T12:58:08;0.30;;;0.30;;
12818;SDS011;6474;53.474;9.894;2022-07-05T13:00:36;0.52;;;0.52;;
12818;SDS011;6474;53.474;9.894;2022-07-05T13:03:04;0.30;;;0.30;;
12818;SDS011;6474;53.474;9.894;2022-07-05T13:05:33;0.38;;;0.38;;
12818;SDS011;6474;53.474;9.894;2022-07-05T13:08:02;0.30;;;0.30;;
12818;SDS011;6474;53.474;9.894;2022-07-05T13:10:32;0.22;;;0.22;;
12818;SDS011;6474;53.474;9.894;2022-07-05T13:13:06;0.25;;;0.25;;
12818;SDS011;6474;53.474;9.894;2022-07-05T13:15:35;0.30;;;0.30;;
12818;SDS011;6474;53.474;9.894;2022-07-05T13:18:05;0.20;;;0.20;;
12818;SDS011;6474;53.474;9.894;2022-07-05T13:20:33;0.35;;;0.35;;
12818;SDS011;6474;53.474;9.894;2022-07-05T13:23:01;0.20;;;0.20;;
12818;SDS011;6474;53.474;9.894;2022-07-05T13:25:29;13.00;;;0.43;;
12818;SDS011;6474;53.474;9.894;2022-07-05T13:27:58;0.30;;;0.30;;
12818;SDS011;6474;53.474;9.894;2022-07-05T13:30:26;0.32;;;0.32;;
12818;SDS011;6474;53.474;9.894;2022-07-05T13:32:54;0.30;;;0.30;;
12818;SDS011;6474;53.474;9.894;2022-07-05T13:35:22;0.50;;;0.50;;
12818;SDS011;6474;53.474;9.894;2022-07-05T13:37:50;0.30;;;0.30;;
12818;SDS011;6474;53.474;9.894;2022-07-05T13:40:17;0.38;;;0.38;;
12818;SDS011;6474;53.474;9.894;2022-07-05T13:42:45;0.50;;;0.50;;
12818;SDS011;6474;53.474;9.894;2022-07-05T13:45:15;0.15;;;0.15;;
12818;SDS011;6474;53.474;9.894;2022-07-05T13:47:43;0.35;;;0.35;;
12818;SDS011;6474;53.474;9.894;2022-07-05T13:50:10;0.38;;;0.38;;
12818;SDS011;6474;53.474;9.894;2022-07-05T13:52:56;0.40;;;0.40;;
12818;SDS011;6474;53.474;9.894;2022-07-05T13:55:24;0.38;;;0.38;;
12818;SDS011;6474;53.474;9.894;2022-07-05T13:57:51;0.52;;;0.52;;
12818;SDS011;6474;53.474;9.894;2022-07-05T14:00:21;0.30;;;0.30;;
12818;SDS011;6474;53.474;9.894;2022-07-05T14:02:54;0.43;;;0.43;;
12818;SDS011;6474;53.474;9.894;2022-07-05T14:05:30;0.20;;;0.20;;
12818;SDS011;6474;53.474;9.894;2022-07-05T14:07:58;0.30;;;0.30;;
12818;SDS011;6474;53.474;9.894;2022-07-05T14:10:26;0.13;;;0.13;;
12818;SDS011;6474;53.474;9.894;2022-07-05T14:12:54;0.38;;;0.38;;
12818;SDS011;6474;53.474;9.894;2022-07-05T14:15:24;0.25;;;0.25;;
12818;SDS011;6474;53.474;9.894;2022-07-05T14:17:51;0.40;;;0.40;;
12818;SDS011;6474;53.474;9.894;2022-07-05T14:20:19;1.75;;;0.40;;
12818;SDS011;6474;53.474;9.894;2022-07-05T14:22:47;0.77;;;0.57;;
12818;SDS011;6474;53.474;9.894;2022-07-05T14:25:15;0.47;;;0.47;;
12818;SDS011;6474;53.474;9.894;2022-07-05T14:27:43;0.30;;;0.30;;
12818;SDS011;6474;53.474;9.894;2022-07-05T14:30:13;0.30;;;0.30;;
12818;SDS011;6474;53.474;9.894;2022-07-05T14:32:43;0.30;;;0.30;;
12818;SDS011;6474;53.474;9.894;2022-07-05T14:35:16;0.40;;;0.40;;
12818;SDS011;6474;53.474;9.894;2022-07-05T14:37:45;0.60;;;0.60;;
12818;SDS011;6474;53.474;9.894;2022-07-05T14:40:13;0.30;;;0.30;;
12818;SDS011;6474;53.474;9.894;2022-07-05T14:42:41;0.32;;;0.32;;
12818;SDS011;6474;53.474;9.894;2022-07-05T14:45:09;0.20;;;0.20;;
12818;SDS011;6474;53.474;9.894;2022-07-05T14:47:37;0.30;;;0.30;;
12818;SDS011;6474;53.474;9.894;2022-07-05T14:50:07;0.43;;;0.43;;
12818;SDS011;6474;53.474;9.894;2022-07-05T14:52:35;0.30;;;0.30;;
12818;SDS011;6474;53.474;9.894;2022-07-05T14:55:03;0.30;;;0.30;;
12818;SDS011;6474;53.474;9.894;2022-07-05T14:57:31;0.28;;;0.28;;
12818;SDS011;6474;53.474;9.894;2022-07-05T14:59:59;0.30;;;0.30;;
12818;SDS011;6474;53.474;9.894;2022-07-05T15:02:27;0.55;;;0.30;;
12818;SDS011;6474;53.474;9.894;2022-07-05T15:04:55;0.50;;;0.50;;
12818;SDS011;6474;53.474;9.894;2022-07-05T15:07:24;0.30;;;0.30;;
12818;SDS011;6474;53.474;9.894;2022-07-05T15:09:52;0.10;;;0.10;;
12818;SDS011;6474;53.474;9.894;2022-07-05T15:12:23;0.57;;;0.47;;
12818;SDS011;6474;53.474;9.894;2022-07-05T15:14:51;0.30;;;0.30;;
12818;SDS011;6474;53.474;9.894;2022-07-05T15:17:24;0.35;;;0.35;;
12818;SDS011;6474;53.474;9.894;2022-07-05T15:19:52;0.40;;;0.40;;
12818;SDS011;6474;53.474;9.894;2022-07-05T15:22:20;0.22;;;0.22;;
12818;SDS011;6474;53.474;9.894;2022-07-05T15:24:49;0.40;;;0.40;;
12818;SDS011;6474;53.474;9.894;2022-07-05T15:27:17;0.30;;;0.30;;
12818;SDS011;6474;53.474;9.894;2022-07-05T15:29:45;0.20;;;0.20;;
12818;SDS011;6474;53.474;9.894;2022-07-05T15:32:13;0.30;;;0.30;;